Time;durP1;ratioP1;P1;durP2;ratioP2;P2;SDS_P1;SDS_P2;PMS_P1;PMS_P2;Temp;Humidity;BMP_temperature;BMP_pressure;BME280_temperature;BME280_humidity;BME280_pressure;Samples;Min_cycle;Max_cycle;Signal;HPM_P1;HPM_P2
2022/10/26 00:01:10;;;;;;;;;;;10.50;99.90;;;;;;4959128;28;20388;-76
2022/10/26 00:03:36;;;;;;;;;;;10.40;99.90;;;;;;4959016;28;19932;-76
2022/10/26 00:06:05;;;;;;;;;;;10.40;99.90;;;;;;4958809;28;19972;-76
2022/10/26 00:08:31;;;;;;;;;;;10.40;99.90;;;;;;4956364;28;19926;-75
2022/10/26 00:10:57;;;;;;;;;;;10.40;99.90;;;;;;4958945;28;20029;-76
2022/10/26 00:13:22;;;;;;;;;;;10.40;99.90;;;;;;4958997;28;19977;-76
2022/10/26 00:15:48;;;;;;;;;;;10.40;99.90;;;;;;4959275;28;19926;-76
2022/10/26 00:18:14;;;;;;;;;;;10.40;99.90;;;;;;4939269;29;19988;-75
2022/10/26 00:20:41;;;;;;;;;;;10.30;99.90;;;;;;4956077;29;19927;-76
2022/10/26 00:23:06;;;;;;;;;;;10.30;99.90;;;;;;4956378;29;19933;-76
2022/10/26 00:25:32;;;;;;;;;;;10.20;99.90;;;;;;4956218;29;19926;-75
2022/10/26 00:27:57;;;;;;;;;;;10.20;99.90;;;;;;4947519;29;19935;-76
2022/10/26 00:30:23;;;;;;;;;;;10.20;99.90;;;;;;4956467;29;19931;-79
2022/10/26 00:32:49;;;;;;;;;;;10.20;99.90;;;;;;4956281;29;19973;-75
2022/10/26 00:35:14;;;;;;;;;;;10.20;99.90;;;;;;4950313;29;19982;-76
2022/10/26 00:37:40;;;;;;;;;;;10.20;99.90;;;;;;4955853;29;20366;-76
2022/10/26 00:40:07;;;;;;;;;;;10.10;99.90;;;;;;4947781;29;20419;-75
2022/10/26 00:42:33;;;;;;;;;;;10.10;99.90;;;;;;4956091;29;19927;-80
2022/10/26 00:45:00;;;;;;;;;;;10.10;99.90;;;;;;4948007;29;19927;-73
2022/10/26 00:47:32;;;;;;;;;;;10.00;99.90;;;;;;4955176;29;19931;-73
2022/10/26 00:50:00;;;;;;;;;;;10.00;99.90;;;;;;4939176;29;20433;-77
2022/10/26 00:52:26;;;;;;;;;;;10.00;99.90;;;;;;4956405;28;19926;-73
2022/10/26 00:54:53;;;;;;;;;;;10.00;99.90;;;;;;4956030;29;19933;-73
2022/10/26 00:57:18;;;;;;;;;;;10.00;99.90;;;;;;4950495;29;19989;-73
2022/10/26 00:59:44;;;;;;;;;;;10.00;99.90;;;;;;4956123;28;19926;-73
2022/10/26 01:02:10;;;;;;;;;;;10.00;99.90;;;;;;4955770;29;20279;-73
2022/10/26 01:04:36;;;;;;;;;;;9.90;99.90;;;;;;4956051;29;19926;-74
2022/10/26 01:07:02;;;;;;;;;;;9.90;99.90;;;;;;4947584;29;20395;-73
2022/10/26 01:09:28;;;;;;;;;;;9.90;99.90;;;;;;4955129;29;19934;-73
2022/10/26 01:11:54;;;;;;;;;;;9.90;99.90;;;;;;4954804;29;19980;-73
2022/10/26 01:14:20;;;;;;;;;;;9.80;99.90;;;;;;4954084;29;19931;-73
2022/10/26 01:16:57;;;;;;;;;;;9.80;99.90;;;;;;4954978;29;19926;-72
2022/10/26 01:19:22;;;;;;;;;;;9.80;99.90;;;;;;4948147;28;19934;-73
2022/10/26 01:22:17;;;;;;;;;;;9.80;99.90;;;;;;4954679;29;19927;-73
2022/10/26 01:24:43;;;;;;;;;;;9.90;99.90;;;;;;4940961;29;19927;-73
2022/10/26 01:27:20;;;;;;;;;;;9.90;99.90;;;;;;4961074;28;19932;-73
2022/10/26 01:29:54;;;;;;;;;;;9.90;99.90;;;;;;4974961;28;19927;-73
2022/10/26 01:32:23;;;;;;;;;;;9.90;99.90;;;;;;4952921;29;19926;-73
2022/10/26 01:34:53;;;;;;;;;;;9.90;99.90;;;;;;4955678;29;19945;-73
2022/10/26 01:37:22;;;;;;;;;;;9.90;99.90;;;;;;4965728;28;19933;-73
2022/10/26 01:39:51;;;;;;;;;;;10.00;99.90;;;;;;4955882;28;19930;-73
2022/10/26 01:42:17;;;;;;;;;;;10.00;99.90;;;;;;4954371;29;20009;-73
2022/10/26 01:44:46;;;;;;;;;;;9.90;99.90;;;;;;4952601;29;20017;-73
2022/10/26 01:47:14;;;;;;;;;;;9.90;99.90;;;;;;4949025;29;19926;-73
2022/10/26 01:49:48;;;;;;;;;;;9.90;99.90;;;;;;4938671;29;19934;-73
2022/10/26 01:52:14;;;;;;;;;;;9.90;99.90;;;;;;4949165;29;19927;-73
2022/10/26 01:54:39;;;;;;;;;;;9.90;99.90;;;;;;4955482;29;19927;-73
2022/10/26 01:57:07;;;;;;;;;;;9.90;99.90;;;;;;4948357;29;19972;-80
2022/10/26 01:59:36;;;;;;;;;;;9.80;99.90;;;;;;4954230;29;19950;-73
2022/10/26 02:02:20;;;;;;;;;;;9.80;99.90;;;;;;4947187;29;19930;-73
2022/10/26 02:04:48;;;;;;;;;;;9.80;99.90;;;;;;4955444;29;20033;-73
2022/10/26 02:07:22;;;;;;;;;;;9.70;99.90;;;;;;4948229;29;20028;-75
2022/10/26 02:09:51;;;;;;;;;;;9.70;99.90;;;;;;4955301;28;19978;-73
2022/10/26 02:12:27;;;;;;;;;;;9.70;99.90;;;;;;4954489;29;20023;-73
2022/10/26 02:14:57;;;;;;;;;;;9.70;99.90;;;;;;4953701;29;19927;-76
2022/10/26 02:17:43;;;;;;;;;;;9.60;99.90;;;;;;4954391;29;19926;-73
2022/10/26 02:20:12;;;;;;;;;;;9.60;99.90;;;;;;4954056;29;19927;-82
2022/10/26 02:22:41;;;;;;;;;;;9.60;99.90;;;;;;4951097;29;19969;-73
2022/10/26 02:25:10;;;;;;;;;;;9.60;99.90;;;;;;4947868;29;19978;-75
2022/10/26 02:27:39;;;;;;;;;;;9.60;99.90;;;;;;4955073;28;19981;-73
2022/10/26 02:30:05;;;;;;;;;;;9.60;99.90;;;;;;4956011;28;19933;-73
2022/10/26 02:32:33;;;;;;;;;;;9.50;99.90;;;;;;4958758;29;19961;-73
2022/10/26 02:35:00;;;;;;;;;;;9.50;99.90;;;;;;4950603;29;20283;-73
2022/10/26 02:37:27;;;;;;;;;;;9.40;99.90;;;;;;4957517;29;19927;-73
2022/10/26 02:39:53;;;;;;;;;;;9.40;99.90;;;;;;4942037;29;19926;-73
2022/10/26 02:42:19;;;;;;;;;;;9.40;99.90;;;;;;4952725;29;19933;-73
2022/10/26 02:44:48;;;;;;;;;;;9.40;99.90;;;;;;4973721;28;19933;-73
2022/10/26 02:47:13;;;;;;;;;;;9.40;99.90;;;;;;4951833;29;19926;-73
2022/10/26 02:49:39;;;;;;;;;;;9.40;99.90;;;;;;4958627;28;19927;-73
2022/10/26 02:52:17;;;;;;;;;;;9.30;99.90;;;;;;4958805;29;19926;-73
2022/10/26 02:54:46;;;;;;;;;;;9.30;99.90;;;;;;4955942;29;19926;-73
2022/10/26 02:57:13;;;;;;;;;;;9.30;99.90;;;;;;4958497;29;20290;-73
2022/10/26 02:59:41;;;;;;;;;;;9.30;99.90;;;;;;4958186;29;19934;-73
2022/10/26 03:02:06;;;;;;;;;;;9.20;99.90;;;;;;4958087;29;20268;-73
2022/10/26 03:04:32;;;;;;;;;;;9.20;99.90;;;;;;4953799;29;19927;-73
2022/10/26 03:06:58;;;;;;;;;;;9.10;99.90;;;;;;4958196;29;19931;-75
2022/10/26 03:09:24;;;;;;;;;;;9.10;99.90;;;;;;4957313;29;20436;-73
2022/10/26 03:11:50;;;;;;;;;;;9.10;99.90;;;;;;4956700;29;19930;-73
2022/10/26 03:14:16;;;;;;;;;;;9.10;99.90;;;;;;4952007;29;19927;-73
2022/10/26 03:16:41;;;;;;;;;;;9.00;99.90;;;;;;4957358;29;19934;-73
2022/10/26 03:19:07;;;;;;;;;;;9.00;99.90;;;;;;4938980;29;19934;-73
2022/10/26 03:21:33;;;;;;;;;;;9.00;99.90;;;;;;4922008;29;20423;-73
2022/10/26 03:23:58;;;;;;;;;;;9.00;99.90;;;;;;4938908;29;20026;-73
2022/10/26 03:26:24;;;;;;;;;;;9.00;99.90;;;;;;4938550;29;19934;-73
2022/10/26 03:28:50;;;;;;;;;;;9.00;99.90;;;;;;4921642;29;20454;-73
2022/10/26 03:31:15;;;;;;;;;;;9.10;99.90;;;;;;4938199;29;20013;-73
2022/10/26 03:33:41;;;;;;;;;;;9.10;99.90;;;;;;4921673;29;19927;-73
2022/10/26 03:36:07;;;;;;;;;;;9.20;99.90;;;;;;4937612;29;20343;-73
2022/10/26 03:38:32;;;;;;;;;;;9.20;99.90;;;;;;4938307;29;19927;-73
2022/10/26 03:40:58;;;;;;;;;;;9.30;99.90;;;;;;4921075;29;20403;-73
2022/10/26 03:43:23;;;;;;;;;;;9.30;99.90;;;;;;4937959;29;20413;-73
2022/10/26 03:45:49;;;;;;;;;;;9.30;99.90;;;;;;4938378;29;19931;-73
2022/10/26 03:48:15;;;;;;;;;;;9.30;99.90;;;;;;4921534;29;19927;-73
2022/10/26 03:50:40;;;;;;;;;;;9.20;99.90;;;;;;4921527;29;20319;-73
2022/10/26 03:53:06;;;;;;;;;;;9.30;99.90;;;;;;4921520;29;19977;-73
2022/10/26 03:55:32;;;;;;;;;;;9.30;99.90;;;;;;4921544;29;20305;-73
2022/10/26 03:57:57;;;;;;;;;;;9.30;99.90;;;;;;4938118;29;19930;-73
2022/10/26 04:00:23;;;;;;;;;;;9.30;99.90;;;;;;4938174;29;20043;-73
2022/10/26 04:02:56;;;;;;;;;;;9.30;99.90;;;;;;4921112;29;19930;-73
2022/10/26 04:05:22;;;;;;;;;;;9.30;99.90;;;;;;4937747;29;19926;-74
2022/10/26 04:07:55;;;;;;;;;;;9.40;99.90;;;;;;4920916;29;20392;-73
2022/10/26 04:10:21;;;;;;;;;;;9.40;99.90;;;;;;4921116;29;19931;-80
2022/10/26 04:12:46;;;;;;;;;;;9.40;99.90;;;;;;4937742;29;19934;-73
2022/10/26 04:15:12;;;;;;;;;;;9.40;99.90;;;;;;4937870;29;19926;-73
2022/10/26 04:17:37;;;;;;;;;;;9.40;99.90;;;;;;4944575;29;19936;-73
2022/10/26 04:20:03;;;;;;;;;;;9.50;99.90;;;;;;4956533;29;19927;-73
2022/10/26 04:22:29;;;;;;;;;;;9.50;99.90;;;;;;4952281;29;19927;-73
2022/10/26 04:24:54;;;;;;;;;;;9.60;99.90;;;;;;4956964;29;19958;-73
2022/10/26 04:27:20;;;;;;;;;;;9.60;99.90;;;;;;4951289;29;19927;-73
2022/10/26 04:29:45;;;;;;;;;;;9.60;99.90;;;;;;4955403;29;20021;-73
2022/10/26 04:32:11;;;;;;;;;;;9.70;99.90;;;;;;4956773;29;20339;-73
2022/10/26 04:34:36;;;;;;;;;;;9.70;99.90;;;;;;4956201;29;20005;-73
2022/10/26 04:37:02;;;;;;;;;;;9.80;99.90;;;;;;4932601;29;19933;-73
2022/10/26 04:39:28;;;;;;;;;;;9.80;99.90;;;;;;4956513;28;19936;-73
2022/10/26 04:41:53;;;;;;;;;;;9.90;99.90;;;;;;4956049;29;20371;-73
2022/10/26 04:44:19;;;;;;;;;;;9.90;99.90;;;;;;4955322;29;19977;-73
2022/10/26 04:46:44;;;;;;;;;;;9.90;99.90;;;;;;4956208;29;19926;-74
2022/10/26 04:49:10;;;;;;;;;;;10.00;99.90;;;;;;4949688;29;19998;-73
2022/10/26 04:51:35;;;;;;;;;;;10.00;99.90;;;;;;4956192;28;19926;-73
2022/10/26 04:54:02;;;;;;;;;;;10.00;99.90;;;;;;4947872;29;20283;-73
2022/10/26 04:56:28;;;;;;;;;;;10.10;99.90;;;;;;4955307;29;20029;-73
2022/10/26 04:58:53;;;;;;;;;;;10.20;99.90;;;;;;4954976;29;20460;-73
2022/10/26 05:01:19;;;;;;;;;;;10.20;99.90;;;;;;4954971;29;19934;-73
2022/10/26 05:03:48;;;;;;;;;;;10.20;99.90;;;;;;4957151;28;19934;-73
2022/10/26 05:06:13;;;;;;;;;;;10.20;99.90;;;;;;4956943;28;19926;-73
2022/10/26 05:08:39;;;;;;;;;;;10.20;99.90;;;;;;4970909;28;19927;-73
2022/10/26 05:11:04;;;;;;;;;;;10.20;99.90;;;;;;4951611;28;19977;-73
2022/10/26 05:13:30;;;;;;;;;;;10.20;99.90;;;;;;4955325;29;19926;-73
2022/10/26 05:15:55;;;;;;;;;;;10.20;99.90;;;;;;4956084;29;19934;-73
2022/10/26 05:18:21;;;;;;;;;;;10.20;99.90;;;;;;4936736;29;20371;-73
2022/10/26 05:20:49;;;;;;;;;;;10.20;99.90;;;;;;4945014;29;19926;-73
2022/10/26 05:23:17;;;;;;;;;;;10.20;99.90;;;;;;4949451;29;19977;-73
2022/10/26 05:25:43;;;;;;;;;;;10.20;99.90;;;;;;4954824;29;19981;-73
2022/10/26 05:28:13;;;;;;;;;;;10.20;99.90;;;;;;4955472;29;20054;-73
2022/10/26 05:30:42;;;;;;;;;;;10.30;99.90;;;;;;4961667;28;19935;-73
2022/10/26 05:33:08;;;;;;;;;;;10.30;99.90;;;;;;4932793;29;19996;-72
2022/10/26 05:35:34;;;;;;;;;;;10.30;99.90;;;;;;4954563;29;20309;-73
2022/10/26 05:38:05;;;;;;;;;;;10.30;99.90;;;;;;4957620;28;20050;-73
2022/10/26 05:40:30;;;;;;;;;;;10.30;99.90;;;;;;4959110;28;19926;-77
2022/10/26 05:43:00;;;;;;;;;;;10.40;99.90;;;;;;4947215;29;19936;-73
2022/10/26 05:45:26;;;;;;;;;;;10.40;99.90;;;;;;4955053;28;20378;-73
2022/10/26 05:47:51;;;;;;;;;;;10.40;99.90;;;;;;4954179;29;19930;-73
2022/10/26 05:50:17;;;;;;;;;;;10.40;99.90;;;;;;4949492;29;20373;-73
2022/10/26 05:52:43;;;;;;;;;;;10.40;99.90;;;;;;4956896;28;19926;-76
2022/10/26 05:55:11;;;;;;;;;;;10.40;99.90;;;;;;4948459;29;19926;-73
2022/10/26 05:57:37;;;;;;;;;;;10.50;99.90;;;;;;4954585;29;20343;-74
2022/10/26 06:00:06;;;;;;;;;;;10.50;99.90;;;;;;4946875;29;19981;-73
2022/10/26 06:02:43;;;;;;;;;;;10.50;99.90;;;;;;4958861;28;20378;-74
2022/10/26 06:05:10;;;;;;;;;;;10.50;99.90;;;;;;4960044;28;19949;-73
2022/10/26 06:07:35;;;;;;;;;;;10.60;99.90;;;;;;4962864;28;19961;-74
2022/10/26 06:10:01;;;;;;;;;;;10.60;99.90;;;;;;4958300;29;19981;-74
2022/10/26 06:12:27;;;;;;;;;;;10.60;99.90;;;;;;4951059;29;19933;-72
2022/10/26 06:14:52;;;;;;;;;;;10.60;99.90;;;;;;4957851;29;19931;-74
2022/10/26 06:17:37;;;;;;;;;;;10.60;99.90;;;;;;4958653;29;20025;-73
2022/10/26 06:20:22;;;;;;;;;;;10.60;99.90;;;;;;4951799;29;19933;-73
2022/10/26 06:23:00;;;;;;;;;;;10.50;99.90;;;;;;4956679;29;19930;-76
2022/10/26 06:25:31;;;;;;;;;;;10.60;99.90;;;;;;4951981;29;19954;-72
2022/10/26 06:28:15;;;;;;;;;;;10.60;99.90;;;;;;4958784;29;19927;-73
2022/10/26 06:30:40;;;;;;;;;;;10.60;99.90;;;;;;4940420;29;19977;-72
2022/10/26 06:33:08;;;;;;;;;;;10.70;99.90;;;;;;4959142;29;19938;-73
2022/10/26 06:35:40;;;;;;;;;;;10.60;99.90;;;;;;4955234;28;20307;-73
2022/10/26 06:38:11;;;;;;;;;;;10.70;99.90;;;;;;4955002;28;19933;-72
2022/10/26 06:40:38;;;;;;;;;;;10.70;99.90;;;;;;4977265;28;20013;-80
2022/10/26 06:43:08;;;;;;;;;;;10.70;99.90;;;;;;4971826;28;19930;-73
2022/10/26 06:45:34;;;;;;;;;;;10.70;99.90;;;;;;4947211;28;20382;-74
2022/10/26 06:48:04;;;;;;;;;;;10.70;99.90;;;;;;4975559;28;20338;-76
2022/10/26 06:50:34;;;;;;;;;;;10.60;99.90;;;;;;4955293;29;20279;-73
2022/10/26 06:53:19;;;;;;;;;;;10.60;99.90;;;;;;4950159;29;19933;-73
2022/10/26 06:55:46;;;;;;;;;;;10.60;99.90;;;;;;4957526;29;19934;-73
2022/10/26 06:58:17;;;;;;;;;;;10.60;99.90;;;;;;4951447;29;19966;-73
2022/10/26 07:00:49;;;;;;;;;;;10.60;99.90;;;;;;4958190;28;19927;-73
2022/10/26 07:03:15;;;;;;;;;;;10.60;99.90;;;;;;4958365;29;19927;-73
2022/10/26 07:05:41;;;;;;;;;;;10.60;99.90;;;;;;4957882;29;20077;-74
2022/10/26 07:08:07;;;;;;;;;;;10.60;99.90;;;;;;4958226;29;19927;-73
2022/10/26 07:10:37;;;;;;;;;;;10.60;99.90;;;;;;4954642;29;19926;-73
2022/10/26 07:13:06;;;;;;;;;;;10.70;99.90;;;;;;4950302;29;19930;-73
2022/10/26 07:15:32;;;;;;;;;;;10.70;99.90;;;;;;4956561;28;19927;-73
2022/10/26 07:17:59;;;;;;;;;;;10.70;99.90;;;;;;4948995;29;19937;-75
2022/10/26 07:20:24;;;;;;;;;;;10.80;99.90;;;;;;4956453;29;19933;-75
2022/10/26 07:22:51;;;;;;;;;;;10.80;99.90;;;;;;4957273;29;20295;-75
2022/10/26 07:25:17;;;;;;;;;;;10.90;99.90;;;;;;4957408;29;19926;-74
2022/10/26 07:27:42;;;;;;;;;;;10.90;99.90;;;;;;4956808;29;19997;-77
2022/10/26 07:30:08;;;;;;;;;;;11.00;99.90;;;;;;4956687;29;19926;-75
2022/10/26 07:32:34;;;;;;;;;;;11.00;99.90;;;;;;4953840;29;19931;-75
2022/10/26 07:34:59;;;;;;;;;;;11.10;99.90;;;;;;4957134;29;19927;-75
2022/10/26 07:37:25;;;;;;;;;;;11.10;99.90;;;;;;4951694;28;19988;-73
2022/10/26 07:39:50;;;;;;;;;;;11.20;99.90;;;;;;4956475;29;19934;-72
2022/10/26 07:42:16;;;;;;;;;;;11.20;99.90;;;;;;4950967;29;19978;-74
2022/10/26 07:44:42;;;;;;;;;;;11.30;99.90;;;;;;4956729;28;19942;-74
2022/10/26 07:47:07;;;;;;;;;;;11.40;99.90;;;;;;4950219;29;19931;-74
2022/10/26 07:49:33;;;;;;;;;;;11.40;99.90;;;;;;4957928;28;19930;-74
2022/10/26 07:51:59;;;;;;;;;;;11.50;99.90;;;;;;4949320;29;20278;-73
2022/10/26 07:54:24;;;;;;;;;;;11.50;99.90;;;;;;4957327;29;19985;-73
2022/10/26 07:56:50;;;;;;;;;;;11.60;99.90;;;;;;4957262;29;20397;-73
2022/10/26 07:59:18;;;;;;;;;;;11.60;99.90;;;;;;4951470;29;19926;-73
2022/10/26 08:01:44;;;;;;;;;;;11.60;99.90;;;;;;4959177;28;19949;-74
2022/10/26 08:04:09;;;;;;;;;;;11.70;99.90;;;;;;4959180;28;20378;-72
2022/10/26 08:06:35;;;;;;;;;;;11.80;99.90;;;;;;4976343;28;19926;-74
2022/10/26 08:09:01;;;;;;;;;;;11.90;99.90;;;;;;4959048;28;19933;-73
2022/10/26 08:11:27;;;;;;;;;;;12.00;99.90;;;;;;4938199;29;20005;-72
2022/10/26 08:13:53;;;;;;;;;;;12.00;99.90;;;;;;4956937;29;19926;-72
2022/10/26 08:16:18;;;;;;;;;;;12.10;99.90;;;;;;4957105;29;20289;-72
2022/10/26 08:18:46;;;;;;;;;;;12.30;99.90;;;;;;4954211;29;19926;-72
2022/10/26 08:21:12;;;;;;;;;;;12.40;99.90;;;;;;4949811;28;20322;-73
2022/10/26 08:23:38;;;;;;;;;;;12.50;99.90;;;;;;4951465;29;19930;-74
2022/10/26 08:26:04;;;;;;;;;;;12.60;99.90;;;;;;4948949;29;19926;-72
2022/10/26 08:28:29;;;;;;;;;;;12.70;99.90;;;;;;4955184;28;20399;-73
2022/10/26 08:30:55;;;;;;;;;;;12.80;99.90;;;;;;4947893;29;19927;-73
2022/10/26 08:33:21;;;;;;;;;;;12.80;99.90;;;;;;4956485;28;19926;-73
2022/10/26 08:35:47;;;;;;;;;;;12.90;99.90;;;;;;4955036;29;19989;-73
2022/10/26 08:38:13;;;;;;;;;;;13.00;99.90;;;;;;4949795;29;20386;-73
2022/10/26 08:40:40;;;;;;;;;;;13.00;99.90;;;;;;4973793;28;19926;-73
2022/10/26 08:43:11;;;;;;;;;;;13.10;99.90;;;;;;4952594;29;19930;-72
2022/10/26 08:45:44;;;;;;;;;;;13.10;99.90;;;;;;4955281;29;19933;-74
2022/10/26 08:48:12;;;;;;;;;;;13.20;99.90;;;;;;4949551;29;19982;-75
2022/10/26 08:50:41;;;;;;;;;;;13.30;99.90;;;;;;4955256;29;19931;-74
2022/10/26 08:53:12;;;;;;;;;;;13.30;99.90;;;;;;4954691;28;20028;-73
2022/10/26 08:55:57;;;;;;;;;;;13.40;99.90;;;;;;4970329;28;19926;-75
2022/10/26 08:58:26;;;;;;;;;;;13.60;99.90;;;;;;4946612;29;19927;-73
2022/10/26 09:00:52;;;;;;;;;;;13.60;99.90;;;;;;4939152;29;19933;-82
2022/10/26 09:03:18;;;;;;;;;;;13.80;99.90;;;;;;4937070;29;19930;-74
2022/10/26 09:05:46;;;;;;;;;;;13.90;99.90;;;;;;4954637;29;19926;-74
2022/10/26 09:08:17;;;;;;;;;;;14.10;99.90;;;;;;4955895;29;19927;-73
2022/10/26 09:10:55;;;;;;;;;;;14.20;99.90;;;;;;4937665;29;20025;-74
2022/10/26 09:13:39;;;;;;;;;;;14.20;99.90;;;;;;4955844;29;20401;-73
2022/10/26 09:16:23;;;;;;;;;;;14.10;99.90;;;;;;4948086;29;19933;-73
2022/10/26 09:19:00;;;;;;;;;;;14.10;99.90;;;;;;4956009;29;19931;-73
2022/10/26 09:21:55;;;;;;;;;;;14.10;99.90;;;;;;4951410;29;19927;-73
2022/10/26 09:24:31;;;;;;;;;;;14.20;99.90;;;;;;4946527;28;20353;-74
2022/10/26 09:27:06;;;;;;;;;;;14.30;99.90;;;;;;4939341;29;19927;-74
2022/10/26 09:29:42;;;;;;;;;;;14.40;99.90;;;;;;4954970;29;19941;-73
2022/10/26 09:32:29;;;;;;;;;;;14.50;99.90;;;;;;4955527;29;19931;-73
2022/10/26 09:35:01;;;;;;;;;;;14.60;99.90;;;;;;4946875;29;19931;-80
2022/10/26 09:37:30;;;;;;;;;;;14.80;99.90;;;;;;4935434;29;20021;-73
2022/10/26 09:40:17;;;;;;;;;;;14.80;99.90;;;;;;4935671;29;19934;-81
2022/10/26 09:42:45;;;;;;;;;;;14.90;99.90;;;;;;4933767;29;19934;-74
2022/10/26 09:45:11;;;;;;;;;;;15.00;99.90;;;;;;4929759;29;20017;-74
2022/10/26 09:47:37;;;;;;;;;;;15.10;99.90;;;;;;4952939;29;20298;-74
2022/10/26 09:50:06;;;;;;;;;;;15.20;99.90;;;;;;4947736;29;20021;-73
2022/10/26 09:52:32;;;;;;;;;;;15.30;99.90;;;;;;4954388;29;20386;-74
2022/10/26 09:54:57;;;;;;;;;;;15.40;99.90;;;;;;4955480;29;19931;-80
2022/10/26 09:57:23;;;;;;;;;;;15.60;99.90;;;;;;4950171;29;20383;-74
2022/10/26 09:59:51;;;;;;;;;;;15.60;99.90;;;;;;4955171;29;19938;-74
2022/10/26 10:02:39;;;;;;;;;;;15.80;99.90;;;;;;4949141;29;20013;-74
2022/10/26 10:05:23;;;;;;;;;;;15.90;99.90;;;;;;4954333;29;19977;-74
2022/10/26 10:07:48;;;;;;;;;;;15.90;99.90;;;;;;4955066;29;19931;-74
2022/10/26 10:10:15;;;;;;;;;;;15.90;99.90;;;;;;4954278;29;19926;-74
2022/10/26 10:12:41;;;;;;;;;;;15.80;99.90;;;;;;4936546;29;19927;-74
2022/10/26 10:15:17;;;;;;;;;;;15.90;99.90;;;;;;4948083;29;19981;-76
2022/10/26 10:17:47;;;;;;;;;;;15.90;99.90;;;;;;4955108;28;19927;-76
2022/10/26 10:20:20;;;;;;;;;;;15.80;99.90;;;;;;4948228;29;19926;-74
2022/10/26 10:22:53;;;;;;;;;;;15.80;99.90;;;;;;4953748;29;21916;-74
2022/10/26 10:25:30;;;;;;;;;;;15.80;99.90;;;;;;4949407;29;19965;-74
2022/10/26 10:27:56;;;;;;;;;;;15.90;99.90;;;;;;4954233;29;20300;-74
2022/10/26 10:30:26;;;;;;;;;;;15.90;99.90;;;;;;4953656;29;19933;-73
2022/10/26 10:33:06;;;;;;;;;;;16.00;99.90;;;;;;4950830;29;19934;-73
2022/10/26 10:35:31;;;;;;;;;;;16.00;99.90;;;;;;4944784;29;20402;-73
2022/10/26 10:37:57;;;;;;;;;;;16.10;99.90;;;;;;4946668;29;19934;-73
2022/10/26 10:40:27;;;;;;;;;;;16.10;99.90;;;;;;4953805;29;19938;-73
2022/10/26 10:43:01;;;;;;;;;;;16.10;99.90;;;;;;4953003;28;19926;-72
2022/10/26 10:45:28;;;;;;;;;;;16.20;99.90;;;;;;4949618;29;20383;-72
2022/10/26 10:48:02;;;;;;;;;;;16.30;99.90;;;;;;4954985;28;19927;-72
2022/10/26 10:50:28;;;;;;;;;;;16.40;99.90;;;;;;4950286;28;19937;-73
2022/10/26 10:53:11;;;;;;;;;;;16.40;99.90;;;;;;4957752;29;20021;-74
2022/10/26 10:55:37;;;;;;;;;;;16.50;99.90;;;;;;4958458;28;19927;-73
2022/10/26 10:58:12;;;;;;;;;;;16.60;99.90;;;;;;4950706;29;20060;-74
2022/10/26 11:00:39;;;;;;;;;;;16.80;99.90;;;;;;4957202;29;20001;-73
2022/10/26 11:03:23;;;;;;;;;;;17.00;99.90;;;;;;4950452;29;19978;-77
2022/10/26 11:05:53;;;;;;;;;;;17.30;99.90;;;;;;4957275;29;19977;-74
2022/10/26 11:08:22;;;;;;;;;;;17.70;99.90;;;;;;4952235;29;19926;-75
2022/10/26 11:10:50;;;;;;;;;;;18.00;99.90;;;;;;4941365;29;19976;-74
2022/10/26 11:13:21;;;;;;;;;;;18.40;99.90;;;;;;4957685;29;19927;-74
2022/10/26 11:15:49;;;;;;;;;;;18.50;99.90;;;;;;4956312;29;19933;-75
2022/10/26 11:18:24;;;;;;;;;;;18.70;99.90;;;;;;4947889;29;20383;-75
2022/10/26 11:20:56;;;;;;;;;;;18.70;99.90;;;;;;4938924;29;19934;-74
2022/10/26 11:23:21;;;;;;;;;;;18.90;99.90;;;;;;4938854;29;19927;-74
2022/10/26 11:25:57;;;;;;;;;;;19.00;99.90;;;;;;4938996;29;20022;-74
2022/10/26 11:28:37;;;;;;;;;;;19.00;99.90;;;;;;4922090;29;19927;-74
2022/10/26 11:31:06;;;;;;;;;;;19.20;99.90;;;;;;4922276;29;19927;-74
2022/10/26 11:33:35;;;;;;;;;;;19.50;99.90;;;;;;4938601;29;19927;-75
2022/10/26 11:36:06;;;;;;;;;;;19.60;99.90;;;;;;4922162;29;19949;-74
2022/10/26 11:38:31;;;;;;;;;;;20.00;99.90;;;;;;4921747;29;20029;-74
2022/10/26 11:40:57;;;;;;;;;;;20.20;99.90;;;;;;4906030;29;20080;-74
2022/10/26 11:43:40;;;;;;;;;;;20.30;99.90;;;;;;4921478;29;19966;-75
2022/10/26 11:46:09;;;;;;;;;;;20.30;99.90;;;;;;4906068;29;19927;-75
2022/10/26 11:48:35;;;;;;;;;;;20.50;99.90;;;;;;4921739;29;19934;-76
2022/10/26 11:51:01;;;;;;;;;;;20.80;99.90;;;;;;4921878;29;19927;-75
2022/10/26 11:53:29;;;;;;;;;;;20.80;99.90;;;;;;4938252;29;19927;-75
2022/10/26 11:55:55;;;;;;;;;;;20.90;99.90;;;;;;4921654;29;19973;-74
2022/10/26 11:58:22;;;;;;;;;;;20.90;99.90;;;;;;4921102;29;20288;-75
2022/10/26 12:00:54;;;;;;;;;;;20.90;99.90;;;;;;4937912;29;19959;-74
2022/10/26 12:03:23;;;;;;;;;;;20.70;99.90;;;;;;4920242;29;19952;-75
2022/10/26 12:05:53;;;;;;;;;;;20.30;99.90;;;;;;4938140;29;20331;-75
2022/10/26 12:08:37;;;;;;;;;;;19.70;99.90;;;;;;4921008;29;19931;-74
2022/10/26 12:11:06;;;;;;;;;;;19.30;99.90;;;;;;4905265;29;19978;-75
2022/10/26 12:13:37;;;;;;;;;;;19.00;99.90;;;;;;4921023;29;19931;-75
2022/10/26 12:16:23;;;;;;;;;;;19.00;99.90;;;;;;4920976;29;19927;-74
2022/10/26 12:18:48;;;;;;;;;;;19.20;99.90;;;;;;4913613;29;20303;-75
2022/10/26 12:21:14;;;;;;;;;;;19.50;99.90;;;;;;4920790;29;19927;-75
2022/10/26 12:23:56;;;;;;;;;;;19.70;99.90;;;;;;4920722;29;20343;-75
2022/10/26 12:26:22;;;;;;;;;;;20.40;99.90;;;;;;4921041;29;19933;-75
2022/10/26 12:29:14;;;;;;;;;;;20.70;99.90;;;;;;4937817;29;20298;-75
2022/10/26 12:31:41;;;;;;;;;;;20.90;99.90;;;;;;4903245;29;19931;-75
2022/10/26 12:34:14;;;;;;;;;;;21.30;99.90;;;;;;4904895;29;19927;-75
2022/10/26 12:36:54;;;;;;;;;;;21.80;99.90;;;;;;4937722;29;19990;-75
2022/10/26 12:39:31;;;;;;;;;;;21.60;99.90;;;;;;4920322;29;19931;-76
2022/10/26 12:42:05;;;;;;;;;;;21.70;99.90;;;;;;4937499;29;19934;-75
2022/10/26 12:44:41;;;;;;;;;;;21.80;99.90;;;;;;4920299;29;20282;-75
2022/10/26 12:47:26;;;;;;;;;;;21.80;99.90;;;;;;4920479;29;19973;-75
2022/10/26 12:50:08;;;;;;;;;;;22.00;99.90;;;;;;4904442;29;19926;-76
2022/10/26 12:52:56;;;;;;;;;;;22.40;99.90;;;;;;4920000;29;19927;-75
2022/10/26 12:55:29;;;;;;;;;;;22.50;99.90;;;;;;4920218;29;20387;-76
2022/10/26 12:58:07;;;;;;;;;;;22.40;99.90;;;;;;4920533;29;19927;-75
2022/10/26 13:00:34;;;;;;;;;;;22.10;99.90;;;;;;4936804;29;19982;-75
2022/10/26 13:03:22;;;;;;;;;;;22.00;99.90;;;;;;4920032;29;19977;-75
2022/10/26 13:06:07;;;;;;;;;;;21.80;99.90;;;;;;4904650;29;19931;-75
2022/10/26 13:08:40;;;;;;;;;;;22.20;99.90;;;;;;4920085;29;19926;-76
2022/10/26 13:11:10;;;;;;;;;;;22.50;99.90;;;;;;4936842;29;20439;-75
2022/10/26 13:13:36;;;;;;;;;;;22.90;99.90;;;;;;4919733;29;20307;-76
2022/10/26 13:16:02;;;;;;;;;;;22.90;99.90;;;;;;4920481;29;19927;-76
2022/10/26 13:18:28;;;;;;;;;;;22.70;99.90;;;;;;4919509;29;20510;-75
2022/10/26 13:21:07;;;;;;;;;;;22.80;99.90;;;;;;4920148;29;20388;-76
2022/10/26 13:23:34;;;;;;;;;;;22.80;99.90;;;;;;4903892;29;19974;-76
2022/10/26 13:26:02;;;;;;;;;;;22.60;99.90;;;;;;4933736;29;20283;-74
2022/10/26 13:28:45;;;;;;;;;;;21.90;99.90;;;;;;4931439;29;19935;-74
2022/10/26 13:31:40;;;;;;;;;;;21.40;99.90;;;;;;4936772;29;20290;-75
2022/10/26 13:34:12;;;;;;;;;;;20.90;99.90;;;;;;4919870;29;19985;-75
2022/10/26 13:36:43;;;;;;;;;;;20.30;99.90;;;;;;4935762;29;19938;-75
2022/10/26 13:39:13;;;;;;;;;;;19.90;99.90;;;;;;4936417;29;19927;-75
2022/10/26 13:41:43;;;;;;;;;;;19.60;99.90;;;;;;4919745;29;19931;-75
2022/10/26 13:44:29;;;;;;;;;;;19.70;99.90;;;;;;4919778;29;20284;-75
2022/10/26 13:47:02;;;;;;;;;;;19.80;99.90;;;;;;4932918;29;19934;-76
2022/10/26 13:49:45;;;;;;;;;;;19.90;99.90;;;;;;4919411;29;20426;-75
2022/10/26 13:52:15;;;;;;;;;;;19.80;99.90;;;;;;4936584;29;20450;-75
2022/10/26 13:54:44;;;;;;;;;;;19.80;99.90;;;;;;4919561;29;20406;-75
2022/10/26 13:57:31;;;;;;;;;;;19.80;99.90;;;;;;4901796;29;19926;-75
2022/10/26 13:59:57;;;;;;;;;;;19.60;99.90;;;;;;4929080;29;19930;-75
2022/10/26 14:02:24;;;;;;;;;;;19.60;99.90;;;;;;4903907;29;20372;-80
2022/10/26 14:04:58;;;;;;;;;;;19.50;99.90;;;;;;4936349;29;20387;-75
2022/10/26 14:07:26;;;;;;;;;;;19.50;99.90;;;;;;4935986;29;19926;-79
2022/10/26 14:09:53;;;;;;;;;;;19.50;99.90;;;;;;4934947;29;19926;-76
2022/10/26 14:12:19;;;;;;;;;;;19.40;99.90;;;;;;4904082;29;19978;-75
2022/10/26 14:14:44;;;;;;;;;;;19.30;99.90;;;;;;4919125;29;19927;-75
2022/10/26 14:17:28;;;;;;;;;;;19.20;99.90;;;;;;4921142;29;19927;-75
2022/10/26 14:19:54;;;;;;;;;;;19.00;99.90;;;;;;4940138;29;19961;-75
2022/10/26 14:22:27;;;;;;;;;;;18.90;99.90;;;;;;4919597;29;20013;-75
2022/10/26 14:24:54;;;;;;;;;;;18.90;99.90;;;;;;4936195;29;19927;-75
2022/10/26 14:27:21;;;;;;;;;;;18.80;99.90;;;;;;4922377;29;20360;-75
2022/10/26 14:29:50;;;;;;;;;;;18.70;99.90;;;;;;4939606;29;20340;-75
2022/10/26 14:32:42;;;;;;;;;;;18.50;99.90;;;;;;4922886;29;19934;-75
2022/10/26 14:35:11;;;;;;;;;;;18.50;99.90;;;;;;4920787;29;19978;-75